Time;durP1;ratioP1;P1;durP2;ratioP2;P2;SDS_P1;SDS_P2;PMS_P1;PMS_P2;Temp;Humidity;BMP_temperature;BMP_pressure;BME280_temperature;BME280_humidity;BME280_pressure;Samples;Min_cycle;Max_cycle;Signal;HPM_P1;HPM_P2
2021/05/14 00:00:28;;;;;;;6.05;4.65;;;14.50;70.70;;;;;;5052649;28;20488;-71
2021/05/14 00:02:54;;;;;;;7.00;4.80;;;14.50;70.70;;;;;;5050801;28;20025;-70
2021/05/14 00:05:21;;;;;;;6.47;4.60;;;14.50;70.70;;;;;;5050794;28;20029;-71
2021/05/14 00:07:48;;;;;;;6.25;4.70;;;14.50;70.70;;;;;;5046241;28;20017;-71
2021/05/14 00:10:15;;;;;;;7.10;5.38;;;14.60;70.80;;;;;;5045316;28;20025;-71
2021/05/14 00:12:41;;;;;;;7.38;5.07;;;14.60;70.90;;;;;;5050575;28;20167;-71
2021/05/14 00:15:07;;;;;;;8.18;4.93;;;14.60;70.90;;;;;;5046584;28;20132;-71
2021/05/14 00:17:34;;;;;;;7.53;4.72;;;14.60;70.90;;;;;;5047776;28;20029;-71
2021/05/14 00:20:00;;;;;;;6.90;4.60;;;14.60;70.70;;;;;;5048907;28;20028;-71
2021/05/14 00:22:26;;;;;;;5.63;4.68;;;14.60;70.70;;;;;;5048154;28;20537;-71
2021/05/14 00:24:51;;;;;;;7.85;4.88;;;14.60;70.50;;;;;;5052477;28;20112;-71
2021/05/14 00:27:17;;;;;;;5.88;4.43;;;14.60;70.40;;;;;;5048240;28;20025;-71
2021/05/14 00:29:43;;;;;;;8.30;6.30;;;14.60;70.40;;;;;;5049726;28;20028;-71
2021/05/14 00:32:08;;;;;;;8.57;6.50;;;14.70;70.50;;;;;;5039506;28;20033;-71
2021/05/14 00:34:36;;;;;;;8.77;6.88;;;14.70;70.70;;;;;;5052384;28;20025;-71
2021/05/14 00:37:02;;;;;;;7.78;6.40;;;14.70;70.90;;;;;;5050514;28;20021;-71
2021/05/14 00:39:27;;;;;;;7.25;5.45;;;14.70;70.70;;;;;;5052130;28;20036;-71
2021/05/14 00:41:53;;;;;;;7.93;6.15;;;14.60;70.70;;;;;;5052276;28;20025;-71
2021/05/14 00:44:29;;;;;;;7.30;5.30;;;14.60;70.70;;;;;;5052398;28;20071;-71
2021/05/14 00:46:57;;;;;;;6.22;4.00;;;14.70;70.50;;;;;;5050981;28;20367;-71
2021/05/14 00:49:23;;;;;;;5.93;4.40;;;14.70;70.50;;;;;;5051652;28;20066;-71
2021/05/14 00:51:49;;;;;;;5.88;4.50;;;14.70;70.50;;;;;;5049977;28;20412;-71
2021/05/14 00:54:16;;;;;;;7.60;4.63;;;14.70;70.40;;;;;;5052429;28;20017;-71
2021/05/14 00:56:42;;;;;;;5.82;4.50;;;14.70;70.40;;;;;;5038900;28;20036;-71
2021/05/14 00:59:08;;;;;;;5.18;4.10;;;14.70;70.20;;;;;;5052302;28;20017;-71
2021/05/14 01:01:34;;;;;;;6.57;4.57;;;14.80;70.30;;;;;;5047509;28;20530;-71
2021/05/14 01:04:00;;;;;;;5.50;4.35;;;14.80;70.20;;;;;;5045402;28;20025;-71
2021/05/14 01:06:25;;;;;;;6.22;4.68;;;14.80;70.20;;;;;;5047218;28;20432;-71
2021/05/14 01:08:51;;;;;;;6.18;4.80;;;14.80;70.10;;;;;;5051557;28;20029;-71
2021/05/14 01:11:17;;;;;;;5.00;3.83;;;14.80;70.00;;;;;;5042574;28;20030;-71
2021/05/14 01:13:43;;;;;;;7.50;4.50;;;14.80;70.00;;;;;;5032956;28;20032;-71
2021/05/14 01:16:08;;;;;;;5.22;4.00;;;14.80;70.00;;;;;;5055225;28;20056;-71
2021/05/14 01:18:34;;;;;;;6.15;4.55;;;14.70;69.90;;;;;;5044555;28;20042;-71
2021/05/14 01:21:01;;;;;;;6.10;4.35;;;14.70;69.80;;;;;;5049118;28;20024;-68
2021/05/14 01:23:26;;;;;;;6.03;4.40;;;14.70;69.80;;;;;;5054882;28;20017;-68
2021/05/14 01:25:52;;;;;;;7.25;4.95;;;14.70;69.80;;;;;;5046906;28;20079;-68
2021/05/14 01:28:17;;;;;;;7.97;5.55;;;14.60;69.90;;;;;;5052189;28;20075;-68
2021/05/14 01:30:44;;;;;;;6.68;5.47;;;14.60;70.00;;;;;;5054515;28;20047;-68
2021/05/14 01:33:10;;;;;;;6.60;5.20;;;14.60;70.10;;;;;;5053050;28;20025;-68
2021/05/14 01:35:35;;;;;;;6.38;5.03;;;14.60;70.20;;;;;;5049451;28;20036;-68
2021/05/14 01:38:01;;;;;;;7.65;5.68;;;14.60;70.20;;;;;;5054840;28;20087;-68
2021/05/14 01:40:27;;;;;;;9.98;6.65;;;14.60;70.10;;;;;;5054278;28;20029;-68
2021/05/14 01:42:53;;;;;;;9.10;5.60;;;14.60;70.30;;;;;;5053340;28;20070;-68
2021/05/14 01:45:20;;;;;;;10.82;6.55;;;14.50;70.20;;;;;;5053999;28;20074;-68
2021/05/14 01:47:46;;;;;;;8.43;5.60;;;14.50;70.50;;;;;;5049027;28;20480;-67
2021/05/14 01:50:12;;;;;;;8.85;5.95;;;14.50;70.60;;;;;;5086060;28;20032;-68
2021/05/14 01:52:38;;;;;;;7.47;5.70;;;14.40;70.70;;;;;;5038392;28;20025;-68
2021/05/14 01:55:04;;;;;;;9.57;5.47;;;14.40;70.70;;;;;;5048138;28;20029;-68
2021/05/14 01:57:31;;;;;;;10.38;6.03;;;14.40;70.70;;;;;;5053251;28;20051;-67
2021/05/14 01:59:56;;;;;;;10.07;6.63;;;14.30;70.60;;;;;;5052943;28;20036;-68
2021/05/14 02:02:22;;;;;;;9.43;6.57;;;14.30;70.60;;;;;;5054738;28;20025;-68
2021/05/14 02:04:48;;;;;;;11.70;7.47;;;14.30;70.70;;;;;;5053614;28;20090;-69
2021/05/14 02:07:15;;;;;;;14.68;9.65;;;14.20;70.70;;;;;;5045088;28;20045;-68
2021/05/14 02:09:41;;;;;;;21.90;10.95;;;14.20;70.80;;;;;;5054702;28;20033;-68
2021/05/14 02:12:07;;;;;;;17.40;10.35;;;14.20;70.90;;;;;;5054243;28;20017;-68
2021/05/14 02:14:33;;;;;;;21.02;13.02;;;14.10;71.00;;;;;;5052295;28;20021;-68
2021/05/14 02:16:59;;;;;;;23.90;13.95;;;14.10;71.30;;;;;;5053493;28;20045;-68
2021/05/14 02:19:25;;;;;;;21.88;14.07;;;14.00;71.40;;;;;;5054138;28;20025;-68
2021/05/14 02:21:50;;;;;;;24.92;16.10;;;14.00;71.60;;;;;;5049690;28;20036;-68
2021/05/14 02:24:16;;;;;;;24.92;15.18;;;13.90;71.80;;;;;;5051231;28;20047;-68
2021/05/14 02:26:42;;;;;;;22.90;14.15;;;13.90;72.00;;;;;;5054106;28;20033;-68
2021/05/14 02:29:07;;;;;;;21.60;13.52;;;13.80;72.20;;;;;;5054014;28;20017;-68
2021/05/14 02:31:33;;;;;;;19.17;11.85;;;13.80;72.40;;;;;;5037053;28;20036;-68
2021/05/14 02:33:59;;;;;;;21.00;14.23;;;13.80;72.70;;;;;;5081386;28;20033;-68
2021/05/14 02:36:25;;;;;;;17.58;11.77;;;13.80;72.90;;;;;;5053883;28;20021;-67
2021/05/14 02:38:51;;;;;;;16.80;11.18;;;13.80;73.10;;;;;;5052253;28;20028;-67
2021/05/14 02:41:17;;;;;;;17.20;10.02;;;13.80;73.40;;;;;;5053791;28;20033;-68
2021/05/14 02:43:42;;;;;;;12.15;8.88;;;13.70;73.60;;;;;;5053622;28;20032;-68
2021/05/14 02:46:09;;;;;;;13.73;8.77;;;13.80;73.90;;;;;;5053499;28;20462;-68
2021/05/14 02:48:34;;;;;;;12.73;8.50;;;13.80;74.10;;;;;;5052314;28;20095;-67
2021/05/14 02:51:00;;;;;;;12.75;8.95;;;13.90;74.40;;;;;;5052561;28;20084;-68
2021/05/14 02:53:26;;;;;;;11.05;7.75;;;13.90;74.60;;;;;;5049506;28;20056;-70
2021/05/14 02:55:51;;;;;;;12.13;7.68;;;13.90;74.70;;;;;;5048955;28;20033;-69
2021/05/14 02:58:17;;;;;;;10.20;7.15;;;13.90;74.70;;;;;;5048865;28;20083;-68
2021/05/14 03:00:45;;;;;;;11.10;6.05;;;14.00;74.80;;;;;;5048837;28;20021;-68
2021/05/14 03:03:11;;;;;;;10.38;6.78;;;14.00;74.80;;;;;;5036522;28;20570;-69
2021/05/14 03:05:37;;;;;;;7.72;6.03;;;14.00;74.70;;;;;;5046857;28;20108;-69
2021/05/14 03:08:03;;;;;;;9.63;6.32;;;14.10;74.70;;;;;;5048973;28;20024;-68
2021/05/14 03:10:28;;;;;;;10.20;6.90;;;14.10;74.70;;;;;;5048868;28;20025;-68
2021/05/14 03:12:54;;;;;;;8.93;5.85;;;14.10;74.80;;;;;;5047439;28;20032;-68
2021/05/14 03:15:20;;;;;;;9.07;6.32;;;14.10;74.90;;;;;;5044607;28;20063;-68
2021/05/14 03:17:45;;;;;;;9.90;6.07;;;14.10;74.90;;;;;;5035493;28;20441;-68
2021/05/14 03:20:12;;;;;;;9.80;5.78;;;14.10;75.00;;;;;;5043457;28;20405;-68
2021/05/14 03:22:37;;;;;;;9.05;5.97;;;14.10;75.00;;;;;;5050405;28;20394;-68
2021/05/14 03:25:04;;;;;;;8.60;6.20;;;14.10;75.20;;;;;;5051411;28;20029;-68
2021/05/14 03:27:30;;;;;;;8.25;5.35;;;14.10;75.50;;;;;;5051775;28;20045;-69
2021/05/14 03:29:56;;;;;;;9.52;5.05;;;14.10;75.50;;;;;;5052816;28;20044;-68
2021/05/14 03:32:22;;;;;;;8.30;5.15;;;14.10;75.50;;;;;;5051108;28;20082;-68
2021/05/14 03:34:49;;;;;;;9.00;5.35;;;14.10;75.70;;;;;;5050476;28;20020;-68
2021/05/14 03:37:15;;;;;;;7.70;5.13;;;14.20;75.80;;;;;;5041459;28;20049;-68
2021/05/14 03:39:47;;;;;;;6.88;4.70;;;14.20;75.80;;;;;;5051066;28;20021;-68
2021/05/14 03:42:16;;;;;;;8.05;4.55;;;14.30;75.80;;;;;;5048984;28;20029;-66
2021/05/14 03:44:42;;;;;;;6.10;3.85;;;14.40;75.70;;;;;;5050241;28;20036;-67
2021/05/14 03:47:09;;;;;;;6.53;4.25;;;14.50;75.50;;;;;;5044736;28;20044;-67
2021/05/14 03:49:36;;;;;;;5.50;4.28;;;14.60;75.30;;;;;;5040786;28;20105;-68
2021/05/14 03:52:05;;;;;;;5.38;3.90;;;14.70;74.90;;;;;;5049492;28;20021;-69
2021/05/14 03:54:30;;;;;;;5.45;3.80;;;14.80;74.70;;;;;;5060842;28;20128;-68
2021/05/14 03:56:56;;;;;;;6.53;4.20;;;14.90;74.50;;;;;;5051264;28;20136;-68
2021/05/14 03:59:22;;;;;;;7.47;4.85;;;14.90;74.20;;;;;;5041931;28;20108;-68
2021/05/14 04:01:48;;;;;;;6.82;4.25;;;15.00;74.00;;;;;;5050690;28;20025;-68
2021/05/14 04:04:14;;;;;;;5.30;3.90;;;15.10;73.90;;;;;;5042116;28;20037;-68
2021/05/14 04:06:40;;;;;;;6.13;3.88;;;15.20;73.70;;;;;;5043764;28;20048;-66
2021/05/14 04:09:06;;;;;;;6.15;4.75;;;15.30;73.30;;;;;;5052376;28;20363;-67
2021/05/14 04:11:55;;;;;;;6.47;4.53;;;15.30;73.00;;;;;;5052106;28;20028;-67
2021/05/14 04:14:29;;;;;;;7.00;4.53;;;15.40;72.60;;;;;;5048853;28;20021;-68
2021/05/14 04:16:56;;;;;;;6.45;4.68;;;15.50;72.40;;;;;;5041437;28;20091;-68
2021/05/14 04:19:24;;;;;;;7.05;4.78;;;15.50;72.30;;;;;;5050863;28;20395;-67
2021/05/14 04:21:51;;;;;;;6.32;4.82;;;15.60;72.30;;;;;;5052146;28;20025;-68
2021/05/14 04:24:17;;;;;;;8.95;4.68;;;15.60;72.20;;;;;;5051751;28;20017;-68
2021/05/14 04:26:42;;;;;;;6.20;4.18;;;15.80;72.30;;;;;;5051594;28;20029;-68
2021/05/14 04:29:08;;;;;;;5.40;4.20;;;15.90;72.10;;;;;;5051416;28;20033;-68
2021/05/14 04:31:34;;;;;;;6.53;4.05;;;16.00;71.60;;;;;;5051420;28;20028;-67
2021/05/14 04:33:59;;;;;;;5.05;3.70;;;16.00;71.70;;;;;;5031183;28;20129;-68
2021/05/14 04:36:25;;;;;;;5.13;3.47;;;16.10;71.70;;;;;;5044226;28;20033;-68
2021/05/14 04:38:52;;;;;;;5.18;3.45;;;16.30;71.50;;;;;;5047379;28;20033;-68
2021/05/14 04:41:18;;;;;;;5.55;4.28;;;16.50;71.10;;;;;;5051712;28;20031;-67
2021/05/14 04:43:45;;;;;;;7.40;4.38;;;16.60;70.30;;;;;;5049658;28;20080;-68
2021/05/14 04:46:10;;;;;;;5.20;3.75;;;16.70;69.40;;;;;;5042380;28;20029;-68
2021/05/14 04:48:36;;;;;;;6.10;4.00;;;16.70;69.30;;;;;;5052348;28;20378;-69
2021/05/14 04:51:02;;;;;;;4.95;3.60;;;16.60;69.10;;;;;;5054068;28;20482;-68
2021/05/14 04:53:31;;;;;;;5.05;3.80;;;16.50;69.10;;;;;;5055603;28;20060;-66
2021/05/14 04:55:58;;;;;;;4.80;3.75;;;16.50;69.00;;;;;;5054662;28;20029;-67
2021/05/14 04:58:23;;;;;;;6.05;3.88;;;16.50;69.20;;;;;;5051383;28;20108;-67
2021/05/14 05:00:49;;;;;;;6.43;4.03;;;16.50;69.30;;;;;;5050152;28;20108;-68
2021/05/14 05:03:15;;;;;;;6.43;4.15;;;16.50;69.40;;;;;;5049524;28;20064;-69
2021/05/14 05:05:41;;;;;;;7.03;4.57;;;16.60;69.40;;;;;;5050989;28;20032;-69
2021/05/14 05:08:06;;;;;;;5.88;4.35;;;16.60;69.20;;;;;;5039400;28;20037;-66
2021/05/14 05:10:32;;;;;;;10.52;6.45;;;16.70;69.10;;;;;;5044075;28;20389;-67
2021/05/14 05:12:58;;;;;;;9.23;6.05;;;16.80;69.10;;;;;;5051678;28;20360;-68
2021/05/14 05:15:24;;;;;;;8.55;6.38;;;16.90;68.90;;;;;;5052516;28;20056;-69
2021/05/14 05:17:49;;;;;;;8.88;5.88;;;17.00;68.90;;;;;;5053144;28;20452;-69
2021/05/14 05:20:15;;;;;;;11.70;7.30;;;17.10;69.00;;;;;;5050141;28;20060;-68
2021/05/14 05:22:41;;;;;;;8.95;6.30;;;17.20;68.60;;;;;;5055079;28;20390;-69
2021/05/14 05:25:07;;;;;;;7.70;5.47;;;17.40;68.80;;;;;;5046757;28;20029;-68
2021/05/14 05:27:33;;;;;;;8.18;5.88;;;17.60;68.30;;;;;;5051392;28;20028;-68
2021/05/14 05:29:59;;;;;;;7.88;5.32;;;17.70;68.20;;;;;;5052200;28;20093;-68
2021/05/14 05:32:24;;;;;;;7.43;5.85;;;17.90;67.70;;;;;;5042892;28;20059;-68
2021/05/14 05:34:50;;;;;;;7.05;5.10;;;18.00;67.30;;;;;;5051690;28;20036;-69
2021/05/14 05:37:16;;;;;;;9.13;5.30;;;18.10;67.20;;;;;;5047444;28;20154;-69
2021/05/14 05:39:41;;;;;;;8.50;5.30;;;18.20;67.30;;;;;;5047607;28;20029;-69
2021/05/14 05:42:07;;;;;;;6.38;5.75;;;18.30;67.40;;;;;;5039696;28;20028;-68
2021/05/14 05:44:33;;;;;;;7.95;6.30;;;18.40;67.10;;;;;;5044905;28;20028;-69
2021/05/14 05:46:59;;;;;;;10.45;7.05;;;18.50;66.90;;;;;;5043645;28;20029;-70
2021/05/14 05:49:24;;;;;;;8.98;6.38;;;18.60;66.70;;;;;;5041485;28;20030;-67
2021/05/14 05:51:51;;;;;;;7.60;5.43;;;18.60;66.30;;;;;;5046187;28;20036;-69
2021/05/14 05:54:16;;;;;;;9.45;5.45;;;18.70;66.50;;;;;;5040646;28;20032;-71
2021/05/14 05:56:44;;;;;;;6.75;5.20;;;18.70;66.30;;;;;;5039558;28;20021;-69
2021/05/14 05:59:12;;;;;;;6.90;4.97;;;18.80;65.80;;;;;;5030264;28;20636;-70
2021/05/14 06:01:38;;;;;;;9.07;4.80;;;18.90;65.30;;;;;;5040961;28;20115;-68
2021/05/14 06:04:04;;;;;;;8.57;4.90;;;19.00;65.70;;;;;;5059035;28;20504;-67
2021/05/14 06:06:29;;;;;;;8.93;4.75;;;19.10;65.60;;;;;;5033477;28;20044;-70
2021/05/14 06:08:55;;;;;;;6.10;4.82;;;19.30;65.70;;;;;;5029460;28;20406;-68
2021/05/14 06:11:21;;;;;;;6.90;4.63;;;19.50;65.70;;;;;;5029416;28;20029;-69
2021/05/14 06:13:46;;;;;;;7.53;5.45;;;19.70;65.00;;;;;;5027801;28;20033;-68
2021/05/14 06:16:13;;;;;;;8.27;5.50;;;19.80;64.40;;;;;;5033240;28;20053;-68
2021/05/14 06:18:42;;;;;;;6.75;5.05;;;19.90;64.00;;;;;;5031160;28;20025;-68
2021/05/14 06:21:10;;;;;;;6.57;5.63;;;20.00;63.10;;;;;;5027349;28;20025;-67
2021/05/14 06:23:38;;;;;;;6.93;5.22;;;19.90;62.50;;;;;;5024090;28;20040;-68
2021/05/14 06:26:04;;;;;;;7.55;5.38;;;19.90;62.60;;;;;;5054582;28;20033;-69
2021/05/14 06:28:30;;;;;;;6.03;4.65;;;19.80;62.60;;;;;;5018765;28;20033;-67
2021/05/14 06:30:56;;;;;;;7.63;4.25;;;19.70;62.30;;;;;;5026172;28;20070;-68
2021/05/14 06:33:21;;;;;;;6.03;4.30;;;19.50;62.70;;;;;;5050155;28;20041;-68
2021/05/14 06:35:49;;;;;;;7.10;5.55;;;19.50;63.10;;;;;;5029390;28;20040;-67
2021/05/14 06:38:15;;;;;;;7.07;5.25;;;19.40;63.10;;;;;;5028979;28;20044;-68
2021/05/14 06:40:41;;;;;;;6.05;4.68;;;19.50;63.40;;;;;;5034396;28;20033;-68
2021/05/14 06:43:07;;;;;;;5.28;4.55;;;19.60;63.60;;;;;;5030025;28;20410;-71
2021/05/14 06:45:32;;;;;;;6.25;4.93;;;19.70;63.20;;;;;;5031902;28;20850;-67
2021/05/14 06:48:08;;;;;;;6.43;4.63;;;19.70;62.60;;;;;;5037668;28;20551;-70
2021/05/14 06:50:35;;;;;;;7.53;5.10;;;19.70;62.40;;;;;;5037860;28;20096;-70
2021/05/14 06:53:02;;;;;;;8.75;6.30;;;19.70;62.50;;;;;;5029586;28;20025;-71
2021/05/14 06:55:28;;;;;;;8.98;5.60;;;19.70;62.30;;;;;;5031653;28;20033;-68
2021/05/14 06:57:53;;;;;;;6.93;5.45;;;19.60;62.10;;;;;;5035678;28;20729;-70
2021/05/14 07:00:20;;;;;;;16.77;10.02;;;19.60;62.60;;;;;;5030545;28;20123;-71
2021/05/14 07:02:46;;;;;;;9.65;6.75;;;19.60;63.10;;;;;;5059550;28;20038;-70
2021/05/14 07:05:14;;;;;;;8.30;5.72;;;19.80;63.30;;;;;;5029783;28;20042;-68
2021/05/14 07:07:40;;;;;;;10.05;7.13;;;20.00;62.80;;;;;;5038742;28;20021;-67
2021/05/14 07:10:07;;;;;;;15.93;9.40;;;20.20;62.30;;;;;;5022268;28;20110;-70
2021/05/14 07:12:34;;;;;;;11.35;6.65;;;20.40;62.00;;;;;;5027075;28;20033;-68
2021/05/14 07:15:02;;;;;;;8.52;5.90;;;20.50;61.70;;;;;;5029499;28;20139;-69
2021/05/14 07:17:29;;;;;;;8.02;5.40;;;20.60;61.30;;;;;;5023709;28;20667;-70
2021/05/14 07:19:55;;;;;;;8.80;5.75;;;20.70;61.20;;;;;;5029289;28;20029;-68
2021/05/14 07:22:21;;;;;;;7.05;5.32;;;20.90;60.80;;;;;;5031189;28;20043;-69
2021/05/14 07:24:46;;;;;;;6.95;5.68;;;21.00;60.60;;;;;;5031067;28;20021;-71
2021/05/14 07:27:13;;;;;;;7.68;6.18;;;21.10;60.20;;;;;;5025269;28;20029;-70
2021/05/14 07:29:39;;;;;;;8.00;6.13;;;21.20;59.90;;;;;;5031802;28;20048;-73
2021/05/14 07:32:05;;;;;;;7.85;6.40;;;21.40;59.50;;;;;;5029652;28;20136;-72
2021/05/14 07:34:31;;;;;;;6.80;5.70;;;21.50;59.20;;;;;;5026891;28;20126;-69
2021/05/14 07:36:57;;;;;;;6.78;5.20;;;21.50;59.30;;;;;;5032477;28;21006;-70
2021/05/14 07:39:25;;;;;;;5.78;4.72;;;21.60;59.10;;;;;;5028232;28;20037;-68
2021/05/14 07:41:51;;;;;;;6.53;5.10;;;21.70;59.00;;;;;;5022908;28;20039;-71
2021/05/14 07:44:16;;;;;;;8.88;6.82;;;21.80;58.80;;;;;;5024637;28;20032;-69
2021/05/14 07:46:42;;;;;;;10.82;6.80;;;21.80;57.90;;;;;;5022018;28;20126;-69
2021/05/14 07:49:09;;;;;;;8.25;5.80;;;21.70;58.10;;;;;;5022419;28;20040;-69
2021/05/14 07:51:35;;;;;;;8.77;6.85;;;21.60;58.20;;;;;;5026496;28;20021;-70
2021/05/14 07:54:01;;;;;;;9.25;6.32;;;21.60;58.20;;;;;;5017484;28;20877;-70
2021/05/14 07:56:26;;;;;;;14.90;9.43;;;21.60;57.80;;;;;;5023589;28;20037;-69
2021/05/14 07:58:52;;;;;;;11.32;7.15;;;21.60;58.10;;;;;;5026220;28;20033;-70
2021/05/14 08:01:18;;;;;;;9.50;6.22;;;21.70;58.10;;;;;;5025387;28;20112;-69
2021/05/14 08:03:44;;;;;;;7.38;6.05;;;21.80;57.60;;;;;;5019641;28;20033;-69
2021/05/14 08:06:10;;;;;;;9.18;5.75;;;21.80;57.60;;;;;;5024280;28;20636;-71
2021/05/14 08:08:39;;;;;;;8.48;5.70;;;22.00;57.40;;;;;;5024674;28;20033;-69
2021/05/14 08:11:06;;;;;;;7.85;5.57;;;22.10;57.40;;;;;;5027647;28;20029;-69
2021/05/14 08:13:32;;;;;;;8.68;5.70;;;22.20;56.60;;;;;;5026858;28;20083;-70
2021/05/14 08:15:57;;;;;;;7.10;5.18;;;22.30;56.30;;;;;;5031588;28;20048;-70
2021/05/14 08:18:23;;;;;;;13.52;7.60;;;22.40;56.40;;;;;;5027342;28;21307;-67
2021/05/14 08:20:49;;;;;;;7.93;6.22;;;22.50;56.10;;;;;;5024981;28;20072;-66
2021/05/14 08:23:18;;;;;;;8.38;5.95;;;22.50;55.60;;;;;;5040673;28;20048;-69
2021/05/14 08:25:44;;;;;;;9.70;6.05;;;22.60;55.60;;;;;;5035365;28;20069;-71
2021/05/14 08:28:11;;;;;;;9.00;5.10;;;22.70;55.60;;;;;;5034864;28;20044;-69
2021/05/14 08:30:36;;;;;;;8.43;5.65;;;22.80;55.40;;;;;;5035707;28;20033;-69
2021/05/14 08:33:02;;;;;;;6.10;4.93;;;22.80;54.90;;;;;;5035345;28;20140;-70
2021/05/14 08:35:28;;;;;;;7.28;4.53;;;22.80;55.00;;;;;;5027825;28;20044;-70
2021/05/14 08:37:54;;;;;;;7.35;5.32;;;22.80;54.70;;;;;;5034558;28;20033;-70
2021/05/14 08:40:20;;;;;;;7.57;4.97;;;22.90;54.50;;;;;;5035156;28;20132;-70
2021/05/14 08:42:45;;;;;;;6.47;4.90;;;22.80;54.20;;;;;;5039140;28;20480;-71
2021/05/14 08:45:13;;;;;;;7.75;5.80;;;22.80;53.80;;;;;;5031187;28;20143;-71
2021/05/14 08:47:40;;;;;;;8.75;6.68;;;22.80;53.80;;;;;;5026276;28;20033;-72
2021/05/14 08:50:07;;;;;;;8.10;5.30;;;22.70;53.70;;;;;;5031408;28;20593;-74
2021/05/14 08:52:38;;;;;;;7.85;5.65;;;22.80;54.00;;;;;;5032042;28;20044;-69
2021/05/14 08:55:08;;;;;;;6.43;5.03;;;22.80;53.60;;;;;;5032428;28;20029;-72
2021/05/14 08:57:37;;;;;;;6.65;5.63;;;22.80;53.10;;;;;;5028462;28;20029;-72
2021/05/14 09:00:05;;;;;;;8.30;5.95;;;22.70;53.00;;;;;;5030586;28;20370;-71
2021/05/14 09:02:35;;;;;;;9.82;7.07;;;22.70;53.40;;;;;;5033942;28;20067;-71
2021/05/14 09:05:24;;;;;;;7.97;5.72;;;22.70;53.60;;;;;;5036455;28;20110;-71
2021/05/14 09:07:51;;;;;;;15.82;10.23;;;22.80;53.50;;;;;;5014641;28;20060;-72
2021/05/14 09:10:18;;;;;;;13.23;8.98;;;22.90;53.70;;;;;;5025194;28;20034;-71
2021/05/14 09:12:44;;;;;;;17.15;11.65;;;23.00;53.70;;;;;;5028478;28;20052;-70
2021/05/14 09:15:35;;;;;;;11.90;7.00;;;23.10;53.40;;;;;;5024845;28;20080;-71
2021/05/14 09:18:16;;;;;;;7.60;5.72;;;23.20;52.50;;;;;;5029796;28;20116;-72
2021/05/14 09:20:51;;;;;;;6.50;4.60;;;23.20;51.90;;;;;;5032249;28;20025;-71
2021/05/14 09:23:16;;;;;;;7.03;5.22;;;23.10;51.90;;;;;;5031524;28;20025;-72
2021/05/14 09:26:02;;;;;;;5.93;4.63;;;23.00;51.70;;;;;;5026731;28;20087;-72
2021/05/14 09:28:35;;;;;;;6.43;4.80;;;23.00;52.00;;;;;;5038156;28;20033;-71
2021/05/14 09:31:10;;;;;;;6.50;4.70;;;23.10;51.90;;;;;;5029601;28;20032;-71
2021/05/14 09:33:38;;;;;;;5.35;4.20;;;23.00;51.50;;;;;;5032329;28;20374;-72
2021/05/14 09:36:10;;;;;;;7.28;4.93;;;23.00;51.20;;;;;;5028717;28;20056;-71
2021/05/14 09:39:03;;;;;;;8.80;4.83;;;23.00;51.20;;;;;;5031209;28;20124;-71
2021/05/14 09:41:32;;;;;;;5.30;4.30;;;23.00;49.00;;;;;;5033576;28;20044;-72
2021/05/14 09:44:04;;;;;;;7.15;4.38;;;22.90;51.10;;;;;;5034133;28;20041;-72
2021/05/14 09:46:35;;;;;;;6.07;4.20;;;22.90;51.10;;;;;;5029984;28;20060;-72
2021/05/14 09:49:03;;;;;;;6.07;3.50;;;22.90;51.30;;;;;;5058856;28;20082;-72
2021/05/14 09:51:29;;;;;;;5.07;4.15;;;22.90;51.50;;;;;;5029945;28;20033;-74
2021/05/14 09:53:56;;;;;;;6.22;4.43;;;23.00;51.50;;;;;;5032546;28;20192;-73
2021/05/14 09:56:32;;;;;;;5.22;3.70;;;23.00;51.40;;;;;;5030027;28;20571;-74
2021/05/14 09:59:00;;;;;;;6.82;4.30;;;23.10;51.50;;;;;;5023121;28;20466;-72
2021/05/14 10:01:27;;;;;;;5.45;4.25;;;23.20;51.70;;;;;;5022247;28;20390;-73
2021/05/14 10:03:55;;;;;;;5.45;3.72;;;23.40;51.60;;;;;;5017559;28;20369;-71
2021/05/14 10:06:22;;;;;;;7.70;4.10;;;23.50;51.60;;;;;;5014819;28;20035;-69
2021/05/14 10:08:51;;;;;;;6.80;4.50;;;23.70;51.30;;;;;;5026751;28;20068;-69
2021/05/14 10:11:21;;;;;;;8.20;5.15;;;23.70;51.10;;;;;;5025376;28;20022;-69
2021/05/14 10:13:48;;;;;;;8.20;4.60;;;23.70;50.60;;;;;;5054127;28;20094;-68
2021/05/14 10:16:14;;;;;;;4.82;3.67;;;23.70;50.50;;;;;;5021601;28;20056;-69
2021/05/14 10:18:44;;;;;;;9.45;4.53;;;23.60;50.60;;;;;;5028927;28;20036;-72
2021/05/14 10:21:11;;;;;;;6.35;4.18;;;23.60;51.40;;;;;;5027628;28;20036;-71
2021/05/14 10:23:37;;;;;;;6.43;4.35;;;23.60;51.20;;;;;;5034964;28;20112;-72
2021/05/14 10:26:09;;;;;;;6.15;4.05;;;23.60;51.20;;;;;;5022717;28;20028;-72
2021/05/14 10:28:52;;;;;;;6.07;3.90;;;23.70;51.00;;;;;;5027800;28;20366;-71
2021/05/14 10:31:23;;;;;;;5.32;4.03;;;23.90;50.20;;;;;;5024570;28;20033;-71
2021/05/14 10:33:56;;;;;;;6.15;4.22;;;24.10;50.50;;;;;;5023192;28;20073;-72
2021/05/14 10:36:23;;;;;;;7.05;4.93;;;24.30;50.60;;;;;;5022354;28;20032;-72
2021/05/14 10:39:10;;;;;;;7.95;4.78;;;24.40;50.40;;;;;;5029645;28;20158;-71
2021/05/14 10:41:52;;;;;;;8.02;4.90;;;24.50;50.20;;;;;;5028646;28;20053;-70
2021/05/14 10:44:37;;;;;;;6.77;4.70;;;24.60;50.30;;;;;;5031994;28;20044;-69
2021/05/14 10:47:23;;;;;;;7.63;6.35;;;24.70;50.20;;;;;;5030657;28;20043;-70
2021/05/14 10:49:53;;;;;;;7.15;6.38;;;24.90;48.90;;;;;;5024721;28;20707;-72
2021/05/14 10:52:19;;;;;;;10.48;6.85;;;24.80;49.20;;;;;;5026454;28;20116;-71
2021/05/14 10:54:45;;;;;;;8.80;5.45;;;24.90;49.20;;;;;;5018143;28;20029;-72
2021/05/14 10:57:12;;;;;;;11.77;6.72;;;24.90;49.30;;;;;;5030640;28;20043;-71
2021/05/14 10:59:39;;;;;;;6.65;5.00;;;25.00;49.10;;;;;;5023805;28;20122;-72
2021/05/14 11:02:30;;;;;;;8.30;4.85;;;25.20;49.20;;;;;;5030564;28;20033;-71
2021/05/14 11:04:57;;;;;;;5.40;4.50;;;25.40;48.60;;;;;;5029655;28;20029;-72
2021/05/14 11:07:33;;;;;;;5.88;4.45;;;25.50;48.80;;;;;;5025303;28;20090;-70
2021/05/14 11:10:13;;;;;;;6.35;4.78;;;25.60;47.90;;;;;;5023049;28;20107;-71
2021/05/14 11:12:46;;;;;;;7.50;4.85;;;25.80;48.10;;;;;;5030501;28;20482;-71
2021/05/14 11:15:17;;;;;;;6.80;5.10;;;26.00;47.90;;;;;;5025828;28;20056;-71
2021/05/14 11:18:17;;;;;;;10.38;5.68;;;26.30;47.80;;;;;;5031918;28;20040;-71
2021/05/14 11:20:45;;;;;;;6.78;3.67;;;26.50;46.80;;;;;;5011851;28;20033;-71
2021/05/14 11:23:31;;;;;;;5.70;3.38;;;26.70;43.80;;;;;;5031521;28;22676;-71
2021/05/14 11:25:57;;;;;;;5.43;3.17;;;26.50;42.30;;;;;;5024840;28;20083;-72
2021/05/14 11:28:45;;;;;;;4.95;3.20;;;26.30;43.10;;;;;;5022846;28;20021;-73
2021/05/14 11:31:24;;;;;;;6.68;3.28;;;26.20;44.10;;;;;;5030052;28;20029;-73
2021/05/14 11:33:55;;;;;;;4.85;3.08;;;26.40;42.70;;;;;;5027542;28;20580;-74
2021/05/14 11:36:23;;;;;;;4.18;3.03;;;26.40;42.60;;;;;;5028226;28;20440;-71
2021/05/14 11:38:58;;;;;;;3.22;2.67;;;26.40;42.00;;;;;;5031205;28;20091;-71
2021/05/14 11:41:31;;;;;;;5.78;3.00;;;26.30;42.80;;;;;;5033601;28;20037;-71
2021/05/14 11:44:02;;;;;;;4.75;3.15;;;26.30;42.60;;;;;;5033130;28;20025;-72
2021/05/14 11:46:33;;;;;;;7.88;3.35;;;26.20;42.20;;;;;;5031323;28;20025;-70
2021/05/14 11:49:07;;;;;;;4.25;3.40;;;25.90;42.10;;;;;;5033215;28;20037;-71
2021/05/14 11:51:36;;;;;;;7.95;3.75;;;25.70;42.20;;;;;;5032626;28;20025;-70
2021/05/14 11:54:14;;;;;;;4.85;2.90;;;25.60;43.00;;;;;;5031013;28;20028;-69
2021/05/14 11:56:42;;;;;;;6.03;3.28;;;25.70;43.10;;;;;;5027077;28;20080;-70
2021/05/14 11:59:23;;;;;;;5.00;3.05;;;25.90;42.80;;;;;;5027949;28;20072;-73
2021/05/14 12:01:52;;;;;;;4.30;2.83;;;26.10;42.40;;;;;;5035782;28;20033;-71
2021/05/14 12:04:17;;;;;;;6.80;3.10;;;26.20;42.20;;;;;;5030430;28;20027;-70
2021/05/14 12:06:50;;;;;;;4.72;2.78;;;26.40;41.40;;;;;;5028104;28;20454;-70
2021/05/14 12:09:15;;;;;;;;;;;26.50;41.30;;;;;;5032683;28;20103;-70
2021/05/14 12:11:44;;;;;;;4.57;2.50;;;26.50;40.10;;;;;;5022638;28;19920;-69
2021/05/14 12:14:12;;;;;;;3.88;3.10;;;26.40;40.70;;;;;;5027551;28;20390;-71
2021/05/14 12:16:38;;;;;;;5.03;3.13;;;26.20;40.30;;;;;;5020647;28;20513;-71
2021/05/14 12:19:05;;;;;;;4.13;2.88;;;26.00;41.00;;;;;;5021060;28;20060;-71
2021/05/14 12:21:35;;;;;;;4.07;2.85;;;25.90;41.20;;;;;;5044426;28;20038;-70
2021/05/14 12:24:18;;;;;;;5.40;3.10;;;25.70;41.50;;;;;;5036375;28;20508;-70
2021/05/14 12:40:46;;;;;;;3.72;2.75;;;26.50;41.60;;;;;;5101789;27;20646;-74
2021/05/14 12:43:12;;;;;;;4.55;2.60;;;28.90;37.40;;;;;;5083057;28;20459;-75
2021/05/14 12:45:39;;;;;;;3.35;2.45;;;28.40;36.90;;;;;;5091620;27;20027;-77
2021/05/14 12:48:06;;;;;;;2.88;2.50;;;27.80;37.40;;;;;;5079326;28;20066;-77
2021/05/14 12:50:32;;;;;;;5.35;2.90;;;27.30;37.60;;;;;;5089264;27;20024;-75
2021/05/14 12:52:59;;;;;;;4.85;2.63;;;26.90;37.80;;;;;;5078831;27;20728;-77
2021/05/14 12:55:25;;;;;;;3.65;2.50;;;26.60;38.80;;;;;;5093673;27;20803;-75
2021/05/14 12:57:57;;;;;;;4.20;3.00;;;26.70;39.00;;;;;;5103637;27;20028;-77
2021/05/14 13:00:28;;;;;;;3.42;2.60;;;26.90;38.40;;;;;;5078003;27;20615;-78
2021/05/14 13:02:56;;;;;;;5.10;2.60;;;26.80;38.20;;;;;;5097229;27;20019;-77